This is the latest recevied weather packets stored in our database for station/object KF6ILA. If no packets are shown the sender has not sent any weather packets the latest 10 day(s).
| Time | Temp. | Humidity | Pressure | Rain* | Wind** | Luminosity | Snow |
|---|---|---|---|---|---|---|---|
| 1778387132 | 17.78° C | 34% | 1013.3 hPa | 0 mm | - | 0 W/m² | - |
| 1778386538 | 17.78° C | 36% | 1013.3 hPa | 0 mm | - | 0 W/m² | - |
| 1778385647 | 17.22° C | 43% | 1014 hPa | 0 mm | - | 0 W/m² | - |
| 1778385350 | 17.78° C | 44% | 1013.9 hPa | 0 mm | - | 0 W/m² | - |
| 1778385053 | 17.22° C | 45% | 1013.8 hPa | 0 mm | - | 0 W/m² | - |
| 1778384756 | 17.22° C | 44% | 1013.8 hPa | 0 mm | - | 0 W/m² | - |
| 1778383865 | 16.67° C | 48% | 1013.6 hPa | 0 mm | - | 0 W/m² | - |
| 1778383568 | 16.67° C | 50% | 1013.5 hPa | 0 mm | - | 0 W/m² | - |
| 1778383271 | 16.11° C | 53% | 1013.5 hPa | 0 mm | - | 0 W/m² | - |
| 1778381192 | 16.67° C | 69% | 1013 hPa | 0 mm | - | 0 W/m² | - |
| 1778380301 | 16.67° C | 71% | 1012.9 hPa | 0 mm | - | 7 W/m² | - |
| 1778380004 | 16.67° C | 70% | 1012.9 hPa | 0 mm | - | 9 W/m² | - |
| 1778379410 | 17.22° C | 68% | 1012.8 hPa | 0 mm | - | 14 W/m² | - |
| 1778379113 | 17.78° C | 67% | 1012.8 hPa | 0 mm | - | 21 W/m² | - |
| 1778378816 | 17.78° C | 67% | 1012.9 hPa | 0 mm | - | 37 W/m² | - |
| 1778377628 | 18.89° C | 64% | 1012.9 hPa | 0 mm | - | 104 W/m² | - |
| 1778377034 | 19.44° C | 63% | 1012.9 hPa | 0 mm | - | 151 W/m² | - |
| 1778376737 | 20° C | 62% | 1012.8 hPa | 0 mm | - | 174 W/m² | - |
| 1778376440 | 20° C | 61% | 1012.9 hPa | 0 mm | - | 193 W/m² | - |
| 1778376143 | 20.56° C | 60% | 1012.9 hPa | 0 mm | - | 216 W/m² | - |
| 1778375252 | 21.11° C | 59% | 1013 hPa | 0 mm | - | 283 W/m² | - |
| 1778372876 | 22.22° C | 56% | 1012.8 hPa | 0 mm | - | 436 W/m² | - |
| 1778372579 | 22.22° C | 56% | 1012.9 hPa | 0 mm | - | 454 W/m² | - |
| 1778371985 | 22.78° C | 54% | 1012.8 hPa | 0 mm | - | 489 W/m² | - |
| 1778371688 | 22.78° C | 53% | 1012.8 hPa | 0 mm | - | 510 W/m² | - |
* Rain latest hour (hover to see other rain measurements)
** Current wind speed in m/s (hover to see current wind gust speed)